Huvudsida
METAR-TAF:

METAR-TAF

Flygplatser :

Norrköping flygplats

Norrköping, Sverige

latitud: 58-35N, longitud: 016-09E, höjd: 34 m

Aktuellt väderrapport

Denna rapport gjordes för 19 minuter sedan, klockan 17:20 UTC
Vind 13 kt från väst/sydväst
Temperatur 11°C
Fuktighet 66%
Tryck 999 hPa
Sikt 10 km eller mer
Inga moln under 1 500 m eller inga cumulonimbus

METAR: ESSP 221720Z 24013KT CAVOK 11/05 Q0999

Tid: 19:39 (17:39 UTC)

Väderprognos

Denna rapport gjordes för 3 timmar och 9 minuter sedan, klockan 14:30 UTC
Prognos gäller från 22 kl. 15 UTC till 22 kl. 19 UTC
Vind 18 kt från väst/sydväst i byarna ända upp till 32 kt
Sikt 10 km eller mer
Brutna moln på en höjd av 4000 ft

TAF: ESSP 221430Z 2215/2219 25018G32KT 9999 BKN040

Aktuella väderrapporter och prognoser från 4000 flygplatser (METAR- och TAF-rapporter).

De tillgängliga stationerna syns som gula och röda prickar på kartan.

För musen över prickarna för att se namnen på stationerna.

Klicka sedan för att få väderrapporter och prognoser.

För att ändra kartan: Klicka på de gröna knapparna med ett svart kors på för att zooma in; den gröna knappen med ett streck på för att zooma ut; eller på de gröna pilarna för angränsande kartor.


METAR-TAF: